createdAt,value
2023-03-22T00:02:21.087Z,61.16
2023-03-22T00:04:48.367Z,61.26
2023-03-22T00:07:15.348Z,61.24
2023-03-22T00:09:42.509Z,61.22
2023-03-22T00:12:11.366Z,61.38
2023-03-22T00:14:41.336Z,61.41
2023-03-22T00:17:07.987Z,61.41
2023-03-22T00:19:35.066Z,61.44
2023-03-22T00:22:03.091Z,61.39
2023-03-22T00:24:34.352Z,61.36
2023-03-22T00:27:01.675Z,61.24
2023-03-22T00:29:28.917Z,61.07
2023-03-22T00:31:56.229Z,60.87
2023-03-22T00:34:23.047Z,60.88
2023-03-22T00:36:51.310Z,60.83
2023-03-22T00:39:19.032Z,60.88
2023-03-22T00:41:47.235Z,61.01
2023-03-22T00:44:14.767Z,61.00
2023-03-22T00:46:42.098Z,61.05
2023-03-22T00:49:09.214Z,61.08
2023-03-22T00:51:35.875Z,61.08
2023-03-22T00:54:04.009Z,61.14
2023-03-22T00:56:33.330Z,61.19
2023-03-22T00:59:06.515Z,61.28
2023-03-22T01:01:38.657Z,61.27
2023-03-22T01:04:05.994Z,61.39
2023-03-22T01:06:33.602Z,61.33
2023-03-22T01:09:01.169Z,61.45
2023-03-22T01:11:28.637Z,61.43
2023-03-22T01:13:56.629Z,61.39
2023-03-22T01:16:24.752Z,61.40
2023-03-22T01:18:51.786Z,61.38
2023-03-22T01:21:18.937Z,61.40
2023-03-22T01:23:46.252Z,61.39
2023-03-22T01:26:13.504Z,61.44
2023-03-22T01:28:40.797Z,61.43
2023-03-22T01:31:07.998Z,61.43
2023-03-22T01:33:35.312Z,61.39
2023-03-22T01:36:03.618Z,61.41
2023-03-22T01:38:32.659Z,61.45
2023-03-22T01:41:01.859Z,61.42
2023-03-22T01:43:31.564Z,61.39
2023-03-22T01:45:59.592Z,61.37
2023-03-22T01:48:36.895Z,61.34
2023-03-22T01:51:08.300Z,61.38
2023-03-22T01:53:48.454Z,61.31
2023-03-22T01:56:17.020Z,61.29
2023-03-22T01:58:44.208Z,61.31
2023-03-22T02:01:11.839Z,61.54
2023-03-22T02:04:14.871Z,61.56
2023-03-22T02:06:41.840Z,61.73
2023-03-22T02:09:14.062Z,61.79
2023-03-22T02:11:45.681Z,61.87
2023-03-22T02:14:45.349Z,61.93
2023-03-22T02:18:07.264Z,61.89
2023-03-22T02:20:54.608Z,61.82
2023-03-22T02:23:54.006Z,61.76
2023-03-22T02:26:58.899Z,61.61
2023-03-22T02:29:48.703Z,61.63
2023-03-22T02:32:34.449Z,61.73
2023-03-22T02:35:20.951Z,61.88
2023-03-22T02:38:13.992Z,61.82
2023-03-22T02:40:55.685Z,61.86
2023-03-22T02:43:37.996Z,62.01
2023-03-22T02:46:07.167Z,62.17
2023-03-22T02:48:40.264Z,62.29
2023-03-22T02:51:11.408Z,62.39
2023-03-22T02:53:44.175Z,62.52
2023-03-22T02:56:14.265Z,62.65
2023-03-22T02:58:51.384Z,62.78
2023-03-22T03:01:30.156Z,62.86
2023-03-22T03:04:00.703Z,63.01
2023-03-22T03:06:30.603Z,63.13
2023-03-22T03:08:57.842Z,63.17
2023-03-22T03:11:25.991Z,63.17
2023-03-22T03:13:53.293Z,63.30
2023-03-22T03:16:21.533Z,63.31
2023-03-22T03:19:07.373Z,63.28
2023-03-22T03:21:53.067Z,63.48
2023-03-22T03:24:32.557Z,63.48
2023-03-22T03:27:25.147Z,63.32
2023-03-22T03:30:01.379Z,63.31
2023-03-22T03:32:34.934Z,63.38
2023-03-22T03:35:06.619Z,63.35
2023-03-22T03:37:41.669Z,63.45
2023-03-22T03:40:20.832Z,63.41
2023-03-22T03:42:49.954Z,63.42
2023-03-22T03:45:16.898Z,63.34
2023-03-22T03:47:46.143Z,63.35
2023-03-22T03:50:15.201Z,63.34
2023-03-22T03:52:44.528Z,63.34
2023-03-22T03:55:11.584Z,63.30
2023-03-22T03:57:39.845Z,63.18
2023-03-22T04:00:08.807Z,63.14
2023-03-22T04:02:46.086Z,63.09
2023-03-22T04:05:26.100Z,63.03
2023-03-22T04:07:52.962Z,62.98
2023-03-22T04:10:19.926Z,62.97
2023-03-22T04:12:49.233Z,63.05
2023-03-22T04:15:18.213Z,63.15
2023-03-22T04:17:48.120Z,63.30
2023-03-22T04:20:16.462Z,63.34
2023-03-22T04:22:46.228Z,63.38
2023-03-22T04:25:18.690Z,63.42
2023-03-22T04:27:55.180Z,63.41
2023-03-22T04:30:24.019Z,63.44
2023-03-22T04:33:11.149Z,63.52
2023-03-22T04:35:58.776Z,63.60
2023-03-22T04:38:33.485Z,63.70
2023-03-22T04:41:00.760Z,63.74
2023-03-22T04:43:50.365Z,63.67
2023-03-22T04:46:20.679Z,63.69
2023-03-22T04:48:52.901Z,63.61
2023-03-22T04:51:20.313Z,63.73
2023-03-22T04:53:58.880Z,63.82
2023-03-22T04:56:25.643Z,63.92
2023-03-22T04:58:52.615Z,64.02
2023-03-22T05:01:22.749Z,63.90
2023-03-22T05:03:56.065Z,64.12
2023-03-22T05:06:22.828Z,64.36
2023-03-22T05:09:00.414Z,64.61
2023-03-22T05:11:27.637Z,64.68
2023-03-22T05:14:12.028Z,64.76
2023-03-22T05:16:41.187Z,64.81
2023-03-22T05:19:13.236Z,64.87
2023-03-22T05:21:43.613Z,65.04
2023-03-22T05:24:10.585Z,65.12
2023-03-22T05:26:41.652Z,65.14
2023-03-22T05:29:10.440Z,65.16
2023-03-22T05:32:00.105Z,65.10
2023-03-22T05:34:34.730Z,65.05
2023-03-22T05:37:06.040Z,65.05
2023-03-22T05:39:55.022Z,64.92
2023-03-22T05:42:25.837Z,64.80
2023-03-22T05:44:52.560Z,64.80
2023-03-22T05:47:20.445Z,64.74
2023-03-22T05:50:00.836Z,64.73
2023-03-22T05:52:28.174Z,64.69
2023-03-22T05:55:13.091Z,64.56
2023-03-22T05:57:44.261Z,64.47
2023-03-22T06:00:15.659Z,64.36
2023-03-22T06:02:56.093Z,64.31
2023-03-22T06:05:23.652Z,64.25
2023-03-22T06:07:51.539Z,64.09
2023-03-22T06:10:20.659Z,63.95
2023-03-22T06:12:54.824Z,63.91
2023-03-22T06:15:27.407Z,63.76
2023-03-22T06:18:03.863Z,63.56
2023-03-22T06:20:36.182Z,63.41
2023-03-22T06:23:08.994Z,63.13
2023-03-22T06:25:36.136Z,62.97
2023-03-22T06:28:03.379Z,62.85
2023-03-22T06:30:30.918Z,62.64
2023-03-22T06:33:21.081Z,62.34
2023-03-22T06:35:53.055Z,62.23
2023-03-22T06:38:27.957Z,62.15
2023-03-22T06:40:55.738Z,61.86
2023-03-22T06:43:23.947Z,61.77
2023-03-22T06:45:52.155Z,61.42
2023-03-22T06:48:23.107Z,61.28
2023-03-22T06:50:59.065Z,60.98
2023-03-22T06:53:31.650Z,60.69
2023-03-22T06:55:58.501Z,60.56
2023-03-22T06:58:26.502Z,60.45
2023-03-22T07:00:55.645Z,60.25
2023-03-22T07:03:26.416Z,60.12
2023-03-22T07:06:04.261Z,59.90
2023-03-22T07:08:34.941Z,59.87
2023-03-22T07:11:07.133Z,59.62
2023-03-22T07:13:36.217Z,59.44
2023-03-22T07:16:11.501Z,59.38
2023-03-22T07:19:01.761Z,59.46
2023-03-22T07:21:29.920Z,59.28
2023-03-22T07:23:59.772Z,59.21
2023-03-22T07:26:30.039Z,59.18
2023-03-22T07:29:04.200Z,59.11
2023-03-22T07:31:36.027Z,58.95
2023-03-22T07:34:06.267Z,58.70
2023-03-22T07:36:44.118Z,58.44
2023-03-22T07:39:17.177Z,58.14
2023-03-22T07:41:47.607Z,57.65
2023-03-22T07:44:24.864Z,57.47
2023-03-22T07:47:07.598Z,57.20
2023-03-22T07:50:00.771Z,56.99
2023-03-22T07:52:39.369Z,56.69
2023-03-22T07:55:19.281Z,56.26
2023-03-22T07:57:57.210Z,56.04
2023-03-22T08:00:30.781Z,55.94
2023-03-22T08:03:27.333Z,55.59
2023-03-22T08:06:10.269Z,55.19
2023-03-22T08:08:40.573Z,54.77
2023-03-22T08:11:12.009Z,54.45
2023-03-22T08:13:45.147Z,54.40
2023-03-22T08:16:16.212Z,54.17
2023-03-22T08:18:47.065Z,54.02
2023-03-22T08:21:17.491Z,53.91
2023-03-22T08:23:49.925Z,53.46
2023-03-22T08:26:49.497Z,53.09
2023-03-22T08:29:35.918Z,52.57
2023-03-22T08:32:05.951Z,52.36
2023-03-22T08:34:38.914Z,51.99
2023-03-22T08:37:08.150Z,51.81
2023-03-22T08:39:38.780Z,51.58
2023-03-22T08:42:37.736Z,51.10
2023-03-22T08:45:10.938Z,50.89
2023-03-22T08:47:50.763Z,50.81
2023-03-22T08:50:20.355Z,50.38
2023-03-22T08:53:03.097Z,50.28
2023-03-22T08:55:40.506Z,50.07
2023-03-22T08:58:20.464Z,49.74
2023-03-22T09:01:21.270Z,49.49
2023-03-22T09:03:56.564Z,49.46
2023-03-22T09:06:28.249Z,49.03
2023-03-22T09:09:00.682Z,48.56
2023-03-22T09:11:29.442Z,48.15
2023-03-22T09:13:57.715Z,47.88
2023-03-22T09:16:29.165Z,47.65
2023-03-22T09:19:02.046Z,47.64
2023-03-22T09:21:32.374Z,47.36
2023-03-22T09:24:17.407Z,47.55
2023-03-22T09:26:51.409Z,47.16
2023-03-22T09:29:22.906Z,47.20
2023-03-22T09:31:53.190Z,47.02
2023-03-22T09:34:23.117Z,46.95
2023-03-22T09:36:52.174Z,46.87
2023-03-22T09:39:22.236Z,46.67
2023-03-22T09:41:53.930Z,46.60
2023-03-22T09:44:36.030Z,46.77
2023-03-22T09:47:04.892Z,46.80
2023-03-22T09:49:52.601Z,46.75
2023-03-22T09:52:20.257Z,46.38
2023-03-22T09:54:47.184Z,46.33
2023-03-22T09:57:23.969Z,46.17
2023-03-22T10:00:13.995Z,45.91
2023-03-22T10:02:58.978Z,45.59
2023-03-22T10:05:35.260Z,45.77
2023-03-22T10:08:24.329Z,45.55
2023-03-22T10:10:52.241Z,45.48
2023-03-22T10:13:46.613Z,45.26
2023-03-22T10:16:18.968Z,44.73
2023-03-22T10:18:49.188Z,44.21
2023-03-22T10:22:32.882Z,43.47
2023-03-22T10:29:50.727Z,41.42
2023-03-22T10:32:57.590Z,40.86
2023-03-22T10:35:25.035Z,40.40
2023-03-22T10:37:51.794Z,40.03
2023-03-22T10:40:20.612Z,39.57
2023-03-22T10:42:52.629Z,38.71
2023-03-22T10:45:19.593Z,38.55
2023-03-22T10:48:05.033Z,38.56
2023-03-22T10:50:32.632Z,38.44
2023-03-22T10:53:23.048Z,38.04
2023-03-22T10:55:50.375Z,36.65
2023-03-22T10:58:21.337Z,36.52
2023-03-22T11:00:50.042Z,36.40
2023-03-22T11:03:36.157Z,36.39
2023-03-22T11:06:17.147Z,35.73
2023-03-22T11:08:49.000Z,35.50
2023-03-22T11:11:38.328Z,35.37
2023-03-22T11:14:08.014Z,35.21
2023-03-22T11:17:06.068Z,35.30
2023-03-22T11:19:34.024Z,35.12
2023-03-22T11:22:04.572Z,34.95
2023-03-22T11:24:32.533Z,34.93
2023-03-22T11:27:05.216Z,34.82
2023-03-22T11:29:49.123Z,34.49
2023-03-22T11:32:28.484Z,34.19
2023-03-22T11:35:19.752Z,34.33
2023-03-22T11:37:51.317Z,34.07
2023-03-22T11:40:21.924Z,34.08
2023-03-22T11:42:51.691Z,33.64
2023-03-22T11:45:27.515Z,33.61
2023-03-22T11:47:54.577Z,33.84
2023-03-22T11:50:29.650Z,34.17
2023-03-22T11:52:56.602Z,34.55
2023-03-22T11:55:24.070Z,35.05
2023-03-22T11:57:51.221Z,35.39
2023-03-22T12:00:20.871Z,35.94
2023-03-22T12:02:55.434Z,36.43
2023-03-22T12:05:28.102Z,36.50
2023-03-22T12:08:18.633Z,36.71
2023-03-22T12:10:48.455Z,36.96
2023-03-22T12:13:23.089Z,37.22
2023-03-22T12:15:56.078Z,37.61
2023-03-22T12:18:41.143Z,37.60
2023-03-22T12:21:09.439Z,37.77
2023-03-22T12:23:37.441Z,38.13
2023-03-22T12:26:11.444Z,38.45
2023-03-22T12:29:02.505Z,38.49
2023-03-22T12:31:31.623Z,38.03
2023-03-22T12:34:02.474Z,37.74
2023-03-22T12:36:42.445Z,37.93
2023-03-22T12:39:26.388Z,37.88
2023-03-22T12:41:53.592Z,37.73
2023-03-22T12:44:28.814Z,37.85
2023-03-22T12:46:56.883Z,37.87
2023-03-22T12:49:30.557Z,37.95
2023-03-22T12:52:10.407Z,38.01
2023-03-22T12:54:37.242Z,37.55
2023-03-22T12:57:04.108Z,37.66
2023-03-22T12:59:32.570Z,37.77
2023-03-22T13:02:17.805Z,37.81
2023-03-22T13:04:51.794Z,38.18
2023-03-22T13:07:30.566Z,39.04
2023-03-22T13:10:00.428Z,38.60
2023-03-22T13:12:41.659Z,37.49
2023-03-22T13:15:56.337Z,36.78
2023-03-22T13:18:35.161Z,35.71
2023-03-22T13:21:31.184Z,34.96
2023-03-22T13:24:00.810Z,34.59
2023-03-22T13:26:34.610Z,34.46
2023-03-22T13:29:01.562Z,33.76
2023-03-22T13:31:42.929Z,32.83
2023-03-22T13:34:15.538Z,32.63
2023-03-22T13:36:49.145Z,32.39
2023-03-22T13:39:15.983Z,32.78
2023-03-22T13:41:45.505Z,33.57
2023-03-22T13:44:25.790Z,33.55
2023-03-22T13:46:52.800Z,33.61
2023-03-22T13:49:53.586Z,33.54
2023-03-22T13:52:35.186Z,33.61
2023-03-22T13:55:02.646Z,32.98
2023-03-22T14:01:49.076Z,32.99
2023-03-22T14:04:22.006Z,33.07
2023-03-22T14:06:54.516Z,33.38
2023-03-22T14:09:31.156Z,33.82
2023-03-22T14:12:49.892Z,34.41
2023-03-22T14:15:30.767Z,34.59
2023-03-22T14:18:07.125Z,34.47
2023-03-22T14:20:35.625Z,34.41
